Time;durP1;ratioP1;P1;durP2;ratioP2;P2;SDS_P1;SDS_P2;PMS_P1;PMS_P2;Temp;Humidity;BMP_temperature;BMP_pressure;BME280_temperature;BME280_humidity;BME280_pressure;Samples;Min_cycle;Max_cycle;Signal;HPM_P1;HPM_P2
2022/09/01 00:00:48;;;;;;;2.40;1.90;;;;;;;;;;4982816;28;20527;-63
2022/09/01 00:03:14;;;;;;;2.20;2.10;;;;;;;;;;4966244;28;20255;-64
2022/09/01 00:05:40;;;;;;;2.03;1.90;;;;;;;;;;4958781;28;20579;-64
2022/09/01 00:08:06;;;;;;;2.30;2.10;;;;;;;;;;4965931;28;20675;-64
2022/09/01 00:10:32;;;;;;;2.40;2.20;;;;;;;;;;4975072;28;20716;-64
2022/09/01 00:12:59;;;;;;;2.07;1.90;;;;;;;;;;4960723;28;20373;-64
2022/09/01 00:15:25;;;;;;;2.23;2.10;;;;;;;;;;4982995;28;20163;-63
2022/09/01 00:17:51;;;;;;;2.13;2.03;;;;;;;;;;4973908;28;20251;-64
2022/09/01 00:20:17;;;;;;;2.30;2.20;;;;;;;;;;4969343;28;20187;-64
2022/09/01 00:22:44;;;;;;;2.80;2.17;;;;;;;;;;4968949;28;20168;-64
2022/09/01 00:25:10;;;;;;;3.23;2.20;;;;;;;;;;4977330;28;20186;-64
2022/09/01 00:27:36;;;;;;;2.30;2.20;;;;;;;;;;4978551;28;20567;-64
2022/09/01 00:30:02;;;;;;;2.10;2.00;;;;;;;;;;4977677;28;20235;-65
2022/09/01 00:32:28;;;;;;;2.33;2.17;;;;;;;;;;4979450;28;20173;-65
2022/09/01 00:34:54;;;;;;;2.57;2.37;;;;;;;;;;4988943;28;20218;-65
2022/09/01 00:37:20;;;;;;;2.77;2.27;;;;;;;;;;4998386;28;20686;-65
2022/09/01 00:39:46;;;;;;;2.50;2.30;;;;;;;;;;4996337;28;21082;-65
2022/09/01 00:42:12;;;;;;;2.93;2.30;;;;;;;;;;4994832;28;20700;-65
2022/09/01 00:44:38;;;;;;;2.43;2.23;;;;;;;;;;4998081;28;20171;-65
2022/09/01 00:47:05;;;;;;;2.50;2.30;;;;;;;;;;4971203;28;20200;-65
2022/09/01 00:49:32;;;;;;;2.37;2.20;;;;;;;;;;4993283;28;20920;-65
2022/09/01 00:52:04;;;;;;;4.10;2.53;;;;;;;;;;4988635;28;20152;-65
2022/09/01 00:54:32;;;;;;;2.93;2.33;;;;;;;;;;4987868;28;20637;-65
2022/09/01 00:56:59;;;;;;;1.93;1.77;;;;;;;;;;4988335;28;20171;-65
2022/09/01 00:59:26;;;;;;;3.67;2.10;;;;;;;;;;4969510;28;20242;-65
2022/09/01 01:01:52;;;;;;;2.70;2.50;;;;;;;;;;4987719;28;20688;-64
2022/09/01 01:04:18;;;;;;;2.17;2.07;;;;;;;;;;4993908;28;20185;-64
2022/09/01 01:06:49;;;;;;;2.40;2.07;;;;;;;;;;5000565;28;20261;-65
2022/09/01 01:09:16;;;;;;;2.00;1.90;;;;;;;;;;4973123;28;20369;-64
2022/09/01 01:11:46;;;;;;;3.17;2.10;;;;;;;;;;4989228;28;20178;-64
2022/09/01 01:14:14;;;;;;;2.20;2.10;;;;;;;;;;4986530;28;20187;-64
2022/09/01 01:16:42;;;;;;;2.20;2.00;;;;;;;;;;4989393;28;20243;-64
2022/09/01 01:23:00;;;;;;;2.20;2.00;;;;;;;;;;4977950;28;20183;-64
2022/09/01 01:24:43;;;;;;;2.37;2.20;;;;;;;;;;4988523;28;20236;-64
2022/09/01 01:27:09;;;;;;;4.20;2.20;;;;;;;;;;4982310;28;20676;-65
2022/09/01 01:29:38;;;;;;;2.37;2.17;;;;;;;;;;4997657;28;20197;-65
2022/09/01 01:32:11;;;;;;;2.80;2.17;;;;;;;;;;4980647;28;20685;-65
2022/09/01 01:34:39;;;;;;;2.50;2.30;;;;;;;;;;4987186;28;20256;-65
2022/09/01 01:37:05;;;;;;;2.60;2.40;;;;;;;;;;4965489;28;20215;-65
2022/09/01 01:39:31;;;;;;;2.20;2.00;;;;;;;;;;4991001;28;20972;-65
2022/09/01 01:41:57;;;;;;;2.30;2.20;;;;;;;;;;4999997;28;20189;-64
2022/09/01 01:44:27;;;;;;;2.40;2.30;;;;;;;;;;4992273;28;20189;-64
2022/09/01 01:46:54;;;;;;;2.07;1.97;;;;;;;;;;4974656;28;20210;-65
2022/09/01 01:49:21;;;;;;;2.43;2.00;;;;;;;;;;4976285;28;20967;-64
2022/09/01 01:51:48;;;;;;;2.67;2.33;;;;;;;;;;4981323;28;20603;-64
2022/09/01 01:54:18;;;;;;;2.30;2.10;;;;;;;;;;4992918;28;20182;-64
2022/09/01 01:56:44;;;;;;;2.10;2.00;;;;;;;;;;5001327;28;20317;-66
2022/09/01 01:59:15;;;;;;;3.47;1.90;;;;;;;;;;4991988;28;20641;-64
2022/09/01 02:01:42;;;;;;;1.90;1.80;;;;;;;;;;4990302;28;20183;-64
2022/09/01 02:04:09;;;;;;;1.87;1.77;;;;;;;;;;4995369;28;20189;-64
2022/09/01 02:06:39;;;;;;;2.87;2.60;;;;;;;;;;5003060;28;20202;-63
2022/09/01 02:09:05;;;;;;;2.10;1.90;;;;;;;;;;4971199;28;20213;-64
2022/09/01 02:11:36;;;;;;;2.37;2.17;;;;;;;;;;4973287;28;20177;-65
2022/09/01 02:14:04;;;;;;;1.90;1.80;;;;;;;;;;4985624;28;20186;-64
2022/09/01 02:16:31;;;;;;;2.20;2.10;;;;;;;;;;4994100;28;20275;-63
2022/09/01 02:18:58;;;;;;;2.50;2.30;;;;;;;;;;4976818;28;20246;-64
2022/09/01 02:21:25;;;;;;;2.93;2.73;;;;;;;;;;4987381;28;20208;-64
2022/09/01 02:24:00;;;;;;;4.87;2.80;;;;;;;;;;4995146;28;20180;-64
2022/09/01 02:26:33;;;;;;;3.10;2.10;;;;;;;;;;4985340;28;20173;-64
2022/09/01 02:29:03;;;;;;;2.67;2.40;;;;;;;;;;4994744;28;20192;-64
2022/09/01 02:31:30;;;;;;;2.00;1.90;;;;;;;;;;5007620;28;20211;-64
2022/09/01 02:33:57;;;;;;;2.30;2.20;;;;;;;;;;4991006;28;20234;-64
2022/09/01 02:36:24;;;;;;;2.90;2.03;;;;;;;;;;4997450;28;20260;-63
2022/09/01 02:38:51;;;;;;;2.97;2.50;;;;;;;;;;4992929;28;20209;-63
2022/09/01 02:41:19;;;;;;;2.40;2.20;;;;;;;;;;4999855;28;20647;-64
2022/09/01 02:43:45;;;;;;;2.57;2.37;;;;;;;;;;4996783;28;20179;-64
2022/09/01 02:46:13;;;;;;;2.50;2.10;;;;;;;;;;5002519;28;20279;-64
2022/09/01 02:48:40;;;;;;;2.33;2.00;;;;;;;;;;4990745;28;20207;-64
2022/09/01 02:51:08;;;;;;;2.30;2.20;;;;;;;;;;5007099;28;20217;-65
2022/09/01 02:53:34;;;;;;;2.50;2.40;;;;;;;;;;4989053;28;20194;-65
2022/09/01 02:56:08;;;;;;;2.50;2.30;;;;;;;;;;5006202;28;20187;-64
2022/09/01 02:58:39;;;;;;;2.47;2.30;;;;;;;;;;5001460;28;20184;-65
2022/09/01 03:01:10;;;;;;;3.73;3.53;;;;;;;;;;5005322;28;20178;-65
2022/09/01 03:03:36;;;;;;;4.33;2.47;;;;;;;;;;5001894;28;20250;-65
2022/09/01 03:06:03;;;;;;;2.47;2.27;;;;;;;;;;4996215;28;20634;-65
2022/09/01 03:08:33;;;;;;;3.30;3.00;;;;;;;;;;4997003;28;20445;-65
2022/09/01 03:11:00;;;;;;;3.20;2.90;;;;;;;;;;4975183;28;20226;-64
2022/09/01 03:13:27;;;;;;;3.97;3.77;;;;;;;;;;4994528;28;20194;-65
2022/09/01 03:15:54;;;;;;;3.50;3.30;;;;;;;;;;4994932;28;20174;-64
2022/09/01 03:18:20;;;;;;;11.57;11.03;;;;;;;;;;5002597;28;20183;-65
2022/09/01 03:20:49;;;;;;;3.00;2.80;;;;;;;;;;5006498;28;20584;-65
2022/09/01 03:23:17;;;;;;;3.00;2.80;;;;;;;;;;4992805;28;20179;-65
2022/09/01 03:25:43;;;;;;;3.87;3.67;;;;;;;;;;5003521;28;20209;-64
2022/09/01 03:28:11;;;;;;;3.30;3.00;;;;;;;;;;4991938;28;20219;-64
2022/09/01 03:30:39;;;;;;;3.03;2.83;;;;;;;;;;5001609;28;20174;-63
2022/09/01 03:33:06;;;;;;;3.87;3.67;;;;;;;;;;4998907;28;20174;-64
2022/09/01 03:35:32;;;;;;;3.60;3.40;;;;;;;;;;4987080;28;20223;-64
2022/09/01 03:37:59;;;;;;;3.60;3.40;;;;;;;;;;4971723;28;20184;-64
2022/09/01 03:40:31;;;;;;;4.57;4.30;;;;;;;;;;4967948;28;20183;-64
2022/09/01 03:42:57;;;;;;;3.10;2.90;;;;;;;;;;4974510;28;20615;-64
2022/09/01 03:45:24;;;;;;;4.77;3.13;;;;;;;;;;4980911;28;20189;-65
2022/09/01 03:47:51;;;;;;;3.03;2.83;;;;;;;;;;4987706;28;20731;-64
2022/09/01 03:50:21;;;;;;;3.37;3.10;;;;;;;;;;4952353;28;20205;-64
2022/09/01 03:52:49;;;;;;;3.10;2.93;;;;;;;;;;4975623;28;20177;-64
2022/09/01 03:55:22;;;;;;;3.87;3.40;;;;;;;;;;4980709;28;20189;-64
2022/09/01 03:57:48;;;;;;;5.07;4.77;;;;;;;;;;4967422;28;20189;-64
2022/09/01 04:00:21;;;;;;;4.13;3.83;;;;;;;;;;4973155;28;20190;-64
2022/09/01 04:02:49;;;;;;;2.50;2.30;;;;;;;;;;4966295;28;20191;-64
2022/09/01 04:05:16;;;;;;;10.80;10.30;;;;;;;;;;4964412;28;20210;-64
2022/09/01 04:07:44;;;;;;;3.43;3.23;;;;;;;;;;4972508;28;20194;-65
2022/09/01 04:10:10;;;;;;;3.30;3.10;;;;;;;;;;4978035;28;20182;-65
2022/09/01 04:12:40;;;;;;;3.03;2.83;;;;;;;;;;4980195;28;20175;-66
2022/09/01 04:15:14;;;;;;;2.87;2.67;;;;;;;;;;4959562;28;20189;-65
2022/09/01 04:20:24;;;;;;;6.00;2.80;;;;;;;;;;4958355;28;20611;-65
2022/09/01 04:22:51;;;;;;;2.63;2.43;;;;;;;;;;4959090;28;20186;-65
2022/09/01 04:25:21;;;;;;;4.70;2.60;;;;;;;;;;4961420;28;20656;-65
2022/09/01 04:27:48;;;;;;;3.70;3.50;;;;;;;;;;4956948;28;20672;-64
2022/09/01 04:30:14;;;;;;;2.30;2.20;;;;;;;;;;4957245;28;20487;-64
2022/09/01 04:32:40;;;;;;;2.70;2.53;;;;;;;;;;4973370;28;20232;-65
2022/09/01 04:35:07;;;;;;;3.47;3.27;;;;;;;;;;4984289;28;20227;-65
2022/09/01 04:37:35;;;;;;;2.53;2.30;;;;;;;;;;5006565;28;20179;-65
2022/09/01 04:40:01;;;;;;;4.43;4.13;;;;;;;;;;4984851;28;20717;-65
2022/09/01 04:42:31;;;;;;;2.03;1.93;;;;;;;;;;4958104;28;20246;-65
2022/09/01 04:44:59;;;;;;;2.53;2.27;;;;;;;;;;4980684;28;20176;-65
2022/09/01 04:47:29;;;;;;;2.30;2.20;;;;;;;;;;4988302;28;20203;-64
2022/09/01 04:49:59;;;;;;;4.43;4.13;;;;;;;;;;4988875;28;20241;-65
2022/09/01 04:52:26;;;;;;;2.60;2.40;;;;;;;;;;4982031;28;20235;-65
2022/09/01 04:54:53;;;;;;;2.40;2.20;;;;;;;;;;4981239;28;20181;-65
2022/09/01 04:57:19;;;;;;;2.60;2.40;;;;;;;;;;4987420;28;20268;-64
2022/09/01 04:59:45;;;;;;;3.03;2.83;;;;;;;;;;4983898;28;20214;-64
2022/09/01 05:02:11;;;;;;;4.43;4.13;;;;;;;;;;4990681;28;20818;-65
2022/09/01 05:04:43;;;;;;;2.00;1.90;;;;;;;;;;4984534;28;20179;-64
2022/09/01 05:07:13;;;;;;;2.57;2.37;;;;;;;;;;4988112;28;20848;-65
2022/09/01 05:09:39;;;;;;;2.43;2.13;;;;;;;;;;4986057;28;20713;-64
2022/09/01 05:12:12;;;;;;;5.07;2.40;;;;;;;;;;4981365;28;20685;-64
2022/09/01 05:14:42;;;;;;;4.53;2.40;;;;;;;;;;4987216;28;20220;-64
2022/09/01 05:17:11;;;;;;;3.30;2.90;;;;;;;;;;4995332;28;20275;-64
2022/09/01 05:19:39;;;;;;;2.60;2.40;;;;;;;;;;4991873;28;20187;-64
2022/09/01 05:22:07;;;;;;;3.17;2.10;;;;;;;;;;4992644;28;20191;-65
2022/09/01 05:24:34;;;;;;;2.60;2.20;;;;;;;;;;4976755;28;20189;-64
2022/09/01 05:27:00;;;;;;;3.93;2.70;;;;;;;;;;4989557;28;20221;-64
2022/09/01 05:29:36;;;;;;;2.90;2.67;;;;;;;;;;4996249;28;20230;-65
2022/09/01 05:32:11;;;;;;;3.40;2.57;;;;;;;;;;4969641;28;20697;-64
2022/09/01 05:34:44;;;;;;;3.60;2.40;;;;;;;;;;4986915;28;20348;-64
2022/09/01 05:37:13;;;;;;;2.40;2.13;;;;;;;;;;4999762;28;20516;-65
2022/09/01 05:39:39;;;;;;;2.50;2.30;;;;;;;;;;4971610;28;20428;-65
2022/09/01 05:42:07;;;;;;;2.90;2.40;;;;;;;;;;5002250;28;20699;-64
2022/09/01 05:44:33;;;;;;;2.20;2.00;;;;;;;;;;4968815;28;20183;-64
2022/09/01 05:47:01;;;;;;;2.93;2.60;;;;;;;;;;4979262;28;20202;-65
2022/09/01 05:49:27;;;;;;;3.20;2.90;;;;;;;;;;4999383;28;20666;-64
2022/09/01 05:51:57;;;;;;;2.57;2.37;;;;;;;;;;4977227;28;20166;-64
2022/09/01 05:54:26;;;;;;;4.13;2.23;;;;;;;;;;4986574;28;20178;-64
2022/09/01 05:56:52;;;;;;;2.53;2.40;;;;;;;;;;4990268;28;20186;-64
2022/09/01 05:59:19;;;;;;;2.10;2.00;;;;;;;;;;4990534;28;20636;-65
2022/09/01 06:01:46;;;;;;;2.33;2.13;;;;;;;;;;4984651;28;20640;-65
2022/09/01 06:04:13;;;;;;;2.63;2.43;;;;;;;;;;4980389;28;20716;-67
2022/09/01 06:06:48;;;;;;;2.57;2.37;;;;;;;;;;4967644;28;20294;-64
2022/09/01 06:09:16;;;;;;;2.40;2.20;;;;;;;;;;4986614;28;20159;-65
2022/09/01 06:11:45;;;;;;;2.80;2.60;;;;;;;;;;4985686;28;20616;-64
2022/09/01 06:14:11;;;;;;;2.50;2.27;;;;;;;;;;4977407;28;20195;-64
2022/09/01 06:16:38;;;;;;;2.70;2.50;;;;;;;;;;4995252;28;20269;-64
2022/09/01 06:19:04;;;;;;;3.13;2.57;;;;;;;;;;4995980;28;20181;-64
2022/09/01 06:21:30;;;;;;;2.10;2.00;;;;;;;;;;4986643;28;20526;-65
2022/09/01 06:23:57;;;;;;;2.73;2.40;;;;;;;;;;4981666;28;20652;-64
2022/09/01 06:26:28;;;;;;;3.73;2.60;;;;;;;;;;4968836;28;20207;-64
2022/09/01 06:29:04;;;;;;;4.83;2.37;;;;;;;;;;4979119;28;20201;-64
2022/09/01 06:31:38;;;;;;;4.40;2.60;;;;;;;;;;4969128;28;20187;-64
2022/09/01 06:34:04;;;;;;;2.27;2.00;;;;;;;;;;4979242;28;20206;-64
2022/09/01 06:36:31;;;;;;;2.40;2.20;;;;;;;;;;4975637;28;20194;-64
2022/09/01 06:39:00;;;;;;;2.80;2.20;;;;;;;;;;4970241;28;20642;-64
2022/09/01 06:41:27;;;;;;;4.37;2.37;;;;;;;;;;4978605;28;20202;-64
2022/09/01 06:43:53;;;;;;;2.67;2.47;;;;;;;;;;5001782;28;20188;-65
2022/09/01 06:46:21;;;;;;;2.43;2.17;;;;;;;;;;5004977;28;20802;-65
2022/09/01 06:48:47;;;;;;;2.57;2.00;;;;;;;;;;4997426;28;20211;-65
2022/09/01 06:51:19;;;;;;;3.13;2.50;;;;;;;;;;4973436;28;20590;-65
2022/09/01 06:53:49;;;;;;;2.40;2.20;;;;;;;;;;4969744;28;20184;-65
2022/09/01 06:56:17;;;;;;;2.37;2.17;;;;;;;;;;4986787;28;20183;-65
2022/09/01 06:58:47;;;;;;;4.13;3.83;;;;;;;;;;4979353;28;20551;-65
2022/09/01 07:01:14;;;;;;;2.00;1.90;;;;;;;;;;4974009;28;20188;-65
2022/09/01 07:03:40;;;;;;;2.53;2.33;;;;;;;;;;4987160;28;20531;-65
2022/09/01 07:06:08;;;;;;;2.47;2.27;;;;;;;;;;4995148;28;20666;-65
2022/09/01 07:08:38;;;;;;;2.67;2.47;;;;;;;;;;4985466;28;20196;-65
2022/09/01 07:11:05;;;;;;;2.90;2.70;;;;;;;;;;4978040;28;20639;-65
2022/09/01 07:13:34;;;;;;;2.43;2.23;;;;;;;;;;4974501;28;20175;-65
2022/09/01 07:16:00;;;;;;;4.10;2.07;;;;;;;;;;4975562;28;20655;-65
2022/09/01 07:18:27;;;;;;;3.73;2.17;;;;;;;;;;4986677;28;20208;-65
2022/09/01 07:20:54;;;;;;;2.53;2.33;;;;;;;;;;4983638;28;20677;-64
2022/09/01 07:23:22;;;;;;;3.50;3.20;;;;;;;;;;4981901;28;20576;-65
2022/09/01 07:25:54;;;;;;;2.90;1.90;;;;;;;;;;4968334;28;20202;-64
2022/09/01 07:28:28;;;;;;;2.70;2.23;;;;;;;;;;4979439;28;20258;-65
2022/09/01 07:30:55;;;;;;;2.30;2.10;;;;;;;;;;4972291;28;20274;-65
2022/09/01 07:33:26;;;;;;;3.17;2.53;;;;;;;;;;4994342;28;20180;-61
2022/09/01 07:35:56;;;;;;;4.07;2.22;;;;;;;;;;4980381;28;20834;-60
2022/09/01 07:38:22;;;;;;;2.03;1.83;;;;;;;;;;4991598;28;20182;-62
2022/09/01 07:40:48;;;;;;;1.97;1.87;;;;;;;;;;4990295;28;20206;-61
2022/09/01 07:43:21;;;;;;;2.37;2.17;;;;;;;;;;4985031;28;20235;-60
2022/09/01 07:45:47;;;;;;;2.20;2.00;;;;;;;;;;4971118;28;20679;-60
2022/09/01 07:48:19;;;;;;;2.60;2.33;;;;;;;;;;4990685;28;20207;-60
2022/09/01 07:50:46;;;;;;;3.70;2.20;;;;;;;;;;4990263;28;20245;-60
2022/09/01 07:53:17;;;;;;;2.87;2.50;;;;;;;;;;4988425;28;20183;-60
2022/09/01 07:55:45;;;;;;;2.40;2.20;;;;;;;;;;4989579;28;20588;-61
2022/09/01 07:58:12;;;;;;;5.60;2.90;;;;;;;;;;4986456;28;20185;-60
2022/09/01 08:00:44;;;;;;;3.00;2.50;;;;;;;;;;4987884;28;20201;-60
2022/09/01 08:03:11;;;;;;;2.07;1.97;;;;;;;;;;4986532;28;20211;-60
2022/09/01 08:05:37;;;;;;;3.03;2.20;;;;;;;;;;4981733;28;20233;-60
2022/09/01 08:08:03;;;;;;;3.03;2.60;;;;;;;;;;4983057;28;20198;-61
2022/09/01 08:10:29;;;;;;;2.47;2.27;;;;;;;;;;4995255;28;20294;-61
2022/09/01 08:12:56;;;;;;;2.30;2.10;;;;;;;;;;4994719;28;20171;-61
2022/09/01 08:15:22;;;;;;;2.63;2.40;;;;;;;;;;4991474;28;20177;-60
2022/09/01 08:17:48;;;;;;;2.50;2.30;;;;;;;;;;5001523;28;20175;-61
2022/09/01 08:20:14;;;;;;;2.63;2.43;;;;;;;;;;4986222;28;20170;-61
2022/09/01 08:22:40;;;;;;;3.07;2.73;;;;;;;;;;4988710;28;20175;-60
2022/09/01 08:25:07;;;;;;;5.30;2.10;;;;;;;;;;4988354;28;20254;-60
2022/09/01 08:27:35;;;;;;;2.50;2.30;;;;;;;;;;4989354;28;20704;-60
2022/09/01 08:30:03;;;;;;;3.07;2.10;;;;;;;;;;4984206;28;20641;-61
2022/09/01 08:32:29;;;;;;;2.90;2.20;;;;;;;;;;4974626;28;20569;-60
2022/09/01 08:34:56;;;;;;;4.67;2.20;;;;;;;;;;4983626;28;20225;-60
2022/09/01 08:37:22;;;;;;;2.33;2.13;;;;;;;;;;4988484;28;20619;-60
2022/09/01 08:39:48;;;;;;;2.93;2.53;;;;;;;;;;4985921;28;20190;-60
2022/09/01 08:42:21;;;;;;;3.50;2.17;;;;;;;;;;4980420;28;20186;-60
2022/09/01 08:44:56;;;;;;;5.43;2.13;;;;;;;;;;4985185;28;20182;-60
2022/09/01 08:47:22;;;;;;;3.17;1.90;;;;;;;;;;4989069;28;20728;-60
2022/09/01 08:49:50;;;;;;;2.07;1.97;;;;;;;;;;4988390;28;20193;-61
2022/09/01 08:52:23;;;;;;;1.83;1.70;;;;;;;;;;4955941;28;20188;-61
2022/09/01 08:54:49;;;;;;;2.60;2.40;;;;;;;;;;4985967;28;20189;-60
2022/09/01 08:57:36;;;;;;;2.67;2.47;;;;;;;;;;4988942;28;20191;-61
2022/09/01 09:00:02;;;;;;;3.10;2.00;;;;;;;;;;5001873;28;20176;-61
2022/09/01 09:02:51;;;;;;;4.57;2.83;;;;;;;;;;4988451;28;20209;-60
2022/09/01 09:05:17;;;;;;;2.03;1.83;;;;;;;;;;4989219;28;20218;-60
2022/09/01 09:07:50;;;;;;;1.87;1.70;;;;;;;;;;4987620;28;20211;-61
2022/09/01 09:10:16;;;;;;;2.17;2.03;;;;;;;;;;4995245;28;20194;-60
2022/09/01 09:12:54;;;;;;;1.80;1.70;;;;;;;;;;5001103;28;20175;-61
2022/09/01 09:15:32;;;;;;;1.93;1.83;;;;;;;;;;5001867;28;20551;-62
2022/09/01 09:18:28;;;;;;;2.10;2.00;;;;;;;;;;5005989;28;20203;-61
2022/09/01 09:20:54;;;;;;;2.07;1.60;;;;;;;;;;4919200;28;20199;-61
2022/09/01 09:23:26;;;;;;;1.87;1.77;;;;;;;;;;4991146;28;20188;-61
2022/09/01 09:25:52;;;;;;;1.97;1.63;;;;;;;;;;4988348;28;20161;-61
2022/09/01 09:28:18;;;;;;;3.03;1.80;;;;;;;;;;4988066;28;20208;-60
2022/09/01 09:30:45;;;;;;;2.43;2.23;;;;;;;;;;4996826;28;20188;-61
2022/09/01 09:33:30;;;;;;;2.27;2.10;;;;;;;;;;4981563;28;20244;-61
2022/09/01 09:36:14;;;;;;;2.30;2.20;;;;;;;;;;4989976;28;20808;-60
2022/09/01 09:38:40;;;;;;;2.10;1.83;;;;;;;;;;4986284;28;20184;-61
2022/09/01 09:41:06;;;;;;;2.10;1.90;;;;;;;;;;4986758;28;20690;-62
2022/09/01 09:43:35;;;;;;;1.80;1.70;;;;;;;;;;4986295;28;20175;-61
2022/09/01 09:46:20;;;;;;;2.00;1.90;;;;;;;;;;4987317;28;20696;-61
2022/09/01 09:48:46;;;;;;;2.10;1.90;;;;;;;;;;4978789;28;20224;-61
2022/09/01 09:51:19;;;;;;;2.03;1.70;;;;;;;;;;4988174;28;20187;-61
2022/09/01 09:53:45;;;;;;;1.70;1.60;;;;;;;;;;4970237;28;20185;-61
2022/09/01 09:56:19;;;;;;;1.70;1.60;;;;;;;;;;4988110;28;20178;-61
2022/09/01 09:58:46;;;;;;;2.80;2.27;;;;;;;;;;4959335;28;20187;-61
2022/09/01 10:01:22;;;;;;;2.00;1.90;;;;;;;;;;4984624;28;20180;-61
2022/09/01 10:03:49;;;;;;;2.03;1.80;;;;;;;;;;4990499;28;20229;-61
2022/09/01 10:06:34;;;;;;;2.47;1.97;;;;;;;;;;4987977;28;20198;-61
2022/09/01 10:09:14;;;;;;;1.77;1.67;;;;;;;;;;4978117;28;20209;-61
2022/09/01 10:11:46;;;;;;;3.93;2.07;;;;;;;;;;4951074;28;20211;-61
2022/09/01 10:14:18;;;;;;;1.83;1.73;;;;;;;;;;4980060;28;20664;-61
2022/09/01 10:16:47;;;;;;;2.77;1.93;;;;;;;;;;4996823;28;20628;-61
2022/09/01 10:19:14;;;;;;;1.73;1.63;;;;;;;;;;4975939;28;20263;-61
2022/09/01 10:21:42;;;;;;;2.40;1.90;;;;;;;;;;4972385;28;20170;-60
2022/09/01 10:24:18;;;;;;;2.03;1.83;;;;;;;;;;4971998;28;20219;-60
2022/09/01 10:26:46;;;;;;;2.00;1.90;;;;;;;;;;4989808;28;20175;-60
2022/09/01 10:29:17;;;;;;;1.90;1.77;;;;;;;;;;4983531;28;20182;-61
2022/09/01 10:31:44;;;;;;;2.30;2.10;;;;;;;;;;4998348;28;20230;-61
2022/09/01 10:34:16;;;;;;;2.30;2.10;;;;;;;;;;4976169;28;20275;-61
2022/09/01 10:36:43;;;;;;;1.90;1.80;;;;;;;;;;4967835;28;20190;-61
2022/09/01 10:39:17;;;;;;;2.03;1.70;;;;;;;;;;4979530;28;20171;-61
2022/09/01 10:41:44;;;;;;;2.30;2.10;;;;;;;;;;4992431;28;20194;-60
2022/09/01 10:44:18;;;;;;;3.33;2.30;;;;;;;;;;4979796;28;20168;-60
2022/09/01 10:46:51;;;;;;;2.37;1.97;;;;;;;;;;5005339;28;20192;-61
2022/09/01 10:49:20;;;;;;;2.00;1.90;;;;;;;;;;4986944;28;20424;-60
2022/09/01 10:51:46;;;;;;;2.80;2.10;;;;;;;;;;4990112;28;20172;-60
2022/09/01 10:54:50;;;;;;;2.60;2.40;;;;;;;;;;4979636;28;20206;-61
2022/09/01 10:57:36;;;;;;;2.50;2.30;;;;;;;;;;4902843;29;20186;-60
2022/09/01 11:00:20;;;;;;;2.10;2.00;;;;;;;;;;4893774;29;20176;-61
2022/09/01 11:03:05;;;;;;;2.97;2.77;;;;;;;;;;4978587;28;20628;-60
2022/09/01 11:05:57;;;;;;;3.23;3.00;;;;;;;;;;4974728;28;20260;-61
2022/09/01 11:08:40;;;;;;;2.90;2.70;;;;;;;;;;4982778;28;20224;-61
2022/09/01 11:11:06;;;;;;;2.50;2.40;;;;;;;;;;4958411;28;20375;-60
2022/09/01 11:13:45;;;;;;;2.30;2.20;;;;;;;;;;4981033;28;20569;-61
2022/09/01 11:16:34;;;;;;;2.70;2.60;;;;;;;;;;4997408;28;20681;-60
2022/09/01 11:19:24;;;;;;;3.47;2.23;;;;;;;;;;4988832;28;20732;-61
2022/09/01 11:22:14;;;;;;;2.83;2.60;;;;;;;;;;4987374;28;20275;-59
2022/09/01 11:24:45;;;;;;;3.20;2.87;;;;;;;;;;4983874;28;20282;-59
2022/09/01 11:27:31;;;;;;;2.70;2.50;;;;;;;;;;4972441;28;20863;-59
2022/09/01 11:29:59;;;;;;;2.33;2.13;;;;;;;;;;4970268;28;20424;-59
2022/09/01 11:32:37;;;;;;;2.40;2.20;;;;;;;;;;4990148;28;20619;-60
2022/09/01 11:35:06;;;;;;;2.50;2.30;;;;;;;;;;5004499;28;20218;-60
2022/09/01 11:37:32;;;;;;;2.97;2.77;;;;;;;;;;4997477;28;20190;-60
2022/09/01 11:40:00;;;;;;;2.50;2.30;;;;;;;;;;5000815;28;20180;-60
2022/09/01 11:42:47;;;;;;;2.77;2.57;;;;;;;;;;4993232;28;20186;-61
2022/09/01 11:45:17;;;;;;;2.33;2.13;;;;;;;;;;4990653;28;20595;-61
2022/09/01 11:47:49;;;;;;;2.23;2.13;;;;;;;;;;5000237;28;20217;-60
2022/09/01 11:50:19;;;;;;;2.60;2.40;;;;;;;;;;4969450;28;20659;-60
2022/09/01 11:52:57;;;;;;;2.40;2.20;;;;;;;;;;4980002;28;20650;-60
2022/09/01 11:55:33;;;;;;;2.50;2.30;;;;;;;;;;4993469;28;20205;-59
2022/09/01 11:58:00;;;;;;;4.17;3.97;;;;;;;;;;4981327;28;20174;-60
2022/09/01 12:00:31;;;;;;;2.30;2.20;;;;;;;;;;4985316;28;20188;-60
2022/09/01 12:02:58;;;;;;;2.40;2.20;;;;;;;;;;4990624;28;20167;-61
2022/09/01 12:05:24;;;;;;;2.90;2.77;;;;;;;;;;5010326;28;20252;-60
2022/09/01 12:07:51;;;;;;;2.20;2.10;;;;;;;;;;4990056;28;20663;-60
2022/09/01 12:10:37;;;;;;;2.63;2.20;;;;;;;;;;5008204;28;20233;-61
2022/09/01 12:13:23;;;;;;;2.83;2.67;;;;;;;;;;4989687;28;20181;-62
2022/09/01 12:16:08;;;;;;;2.63;2.43;;;;;;;;;;4970190;28;20164;-60
2022/09/01 12:18:46;;;;;;;3.50;2.50;;;;;;;;;;4974229;28;20186;-61
2022/09/01 12:21:19;;;;;;;6.17;5.80;;;;;;;;;;4970298;28;20629;-60
2022/09/01 12:23:45;;;;;;;2.63;2.50;;;;;;;;;;4976659;28;20186;-59
2022/09/01 12:26:15;;;;;;;2.67;2.47;;;;;;;;;;4994048;28;20753;-60
2022/09/01 12:28:42;;;;;;;3.83;3.53;;;;;;;;;;4959682;28;20211;-60
2022/09/01 12:31:13;;;;;;;2.43;2.23;;;;;;;;;;4971810;28;20179;-60
2022/09/01 12:33:40;;;;;;;2.80;2.60;;;;;;;;;;4989853;28;20175;-60
2022/09/01 12:36:26;;;;;;;4.60;4.30;;;;;;;;;;4978614;28;20224;-60
2022/09/01 12:38:53;;;;;;;2.13;2.03;;;;;;;;;;4972400;28;20183;-60
2022/09/01 12:41:27;;;;;;;4.93;4.63;;;;;;;;;;4953128;28;20230;-60
2022/09/01 12:43:53;;;;;;;2.83;2.63;;;;;;;;;;4952410;28;20181;-60
2022/09/01 12:46:42;;;;;;;5.33;5.03;;;;;;;;;;4969885;28;20740;-60
2022/09/01 12:49:18;;;;;;;2.80;2.00;;;;;;;;;;4959077;28;20657;-60
2022/09/01 12:51:46;;;;;;;3.57;3.10;;;;;;;;;;4973231;28;20321;-60
2022/09/01 12:54:12;;;;;;;2.57;2.43;;;;;;;;;;4960005;28;20214;-59
2022/09/01 12:56:39;;;;;;;2.90;2.70;;;;;;;;;;4960278;28;20212;-60
2022/09/01 12:59:20;;;;;;;2.40;2.20;;;;;;;;;;4974222;28;20623;-60
2022/09/01 13:01:46;;;;;;;2.80;2.60;;;;;;;;;;4969330;28;20176;-59
2022/09/01 13:04:14;;;;;;;3.13;2.40;;;;;;;;;;4968174;28;20264;-59
2022/09/01 13:06:40;;;;;;;3.43;3.17;;;;;;;;;;4969993;28;20291;-60
2022/09/01 13:09:06;;;;;;;2.77;2.57;;;;;;;;;;4966264;28;20236;-59
2022/09/01 13:11:33;;;;;;;2.93;2.73;;;;;;;;;;4970264;28;20665;-60
2022/09/01 13:14:00;;;;;;;3.90;3.00;;;;;;;;;;4968310;28;20646;-59
2022/09/01 13:16:26;;;;;;;2.50;2.30;;;;;;;;;;4948081;28;20528;-60
2022/09/01 13:18:52;;;;;;;2.50;2.30;;;;;;;;;;4969536;28;20183;-60
2022/09/01 13:21:18;;;;;;;3.53;2.67;;;;;;;;;;4967105;28;20185;-59
2022/09/01 13:23:45;;;;;;;3.50;3.20;;;;;;;;;;4968325;28;20180;-60
2022/09/01 13:26:11;;;;;;;3.37;3.17;;;;;;;;;;4978791;28;20186;-59
2022/09/01 13:28:37;;;;;;;2.70;2.60;;;;;;;;;;4978172;28;20251;-60
2022/09/01 13:31:04;;;;;;;3.00;2.80;;;;;;;;;;4968677;28;20621;-59
2022/09/01 13:33:31;;;;;;;3.30;2.83;;;;;;;;;;4965508;28;20669;-59
2022/09/01 13:35:57;;;;;;;2.40;2.30;;;;;;;;;;4982797;28;20226;-59
2022/09/01 13:38:23;;;;;;;4.63;2.77;;;;;;;;;;4987543;28;20185;-59
2022/09/01 13:40:50;;;;;;;3.13;2.83;;;;;;;;;;4983030;28;20219;-59
2022/09/01 13:43:18;;;;;;;3.73;2.60;;;;;;;;;;4984483;28;20265;-59
2022/09/01 13:45:44;;;;;;;4.27;2.70;;;;;;;;;;4999147;28;20662;-59
2022/09/01 13:48:11;;;;;;;2.37;2.23;;;;;;;;;;4995286;28;20735;-59
2022/09/01 13:50:37;;;;;;;2.60;2.40;;;;;;;;;;4988274;28;20170;-60
2022/09/01 13:53:04;;;;;;;2.87;2.67;;;;;;;;;;4987004;28;20703;-59
2022/09/01 13:55:31;;;;;;;2.97;2.30;;;;;;;;;;4987399;28;20190;-59
2022/09/01 13:57:58;;;;;;;4.70;2.60;;;;;;;;;;4984968;28;20221;-59
2022/09/01 14:00:34;;;;;;;2.60;2.40;;;;;;;;;;4968336;28;20172;-60
2022/09/01 14:03:02;;;;;;;3.00;2.80;;;;;;;;;;4985607;28;20178;-59
2022/09/01 14:05:30;;;;;;;2.87;2.67;;;;;;;;;;4993472;28;20250;-59
2022/09/01 14:07:57;;;;;;;2.23;2.03;;;;;;;;;;4991821;28;20210;-59
2022/09/01 14:10:24;;;;;;;2.50;2.40;;;;;;;;;;5004974;28;20650;-60
2022/09/01 14:12:50;;;;;;;3.20;2.90;;;;;;;;;;4986369;28;20196;-60
2022/09/01 14:15:18;;;;;;;2.47;2.27;;;;;;;;;;4971535;28;20197;-60
2022/09/01 14:17:45;;;;;;;2.57;2.23;;;;;;;;;;4995481;28;20679;-60
2022/09/01 14:20:14;;;;;;;2.90;2.70;;;;;;;;;;4974123;28;20189;-60
2022/09/01 14:22:40;;;;;;;3.47;2.00;;;;;;;;;;4994345;28;20178;-60
2022/09/01 14:25:07;;;;;;;2.30;2.10;;;;;;;;;;4982806;28;20182;-60
2022/09/01 14:27:33;;;;;;;2.90;2.00;;;;;;;;;;4970753;28;20200;-61
2022/09/01 14:29:59;;;;;;;4.17;3.57;;;;;;;;;;4989146;28;20202;-61
2022/09/01 14:32:26;;;;;;;5.17;2.10;;;;;;;;;;4974498;28;20179;-61
2022/09/01 14:34:55;;;;;;;2.17;1.97;;;;;;;;;;4995739;28;20180;-60
2022/09/01 14:37:22;;;;;;;2.10;2.00;;;;;;;;;;5000076;28;20194;-58
2022/09/01 14:39:51;;;;;;;2.50;2.30;;;;;;;;;;5004002;28;20590;-58
2022/09/01 14:42:18;;;;;;;3.47;2.20;;;;;;;;;;5000838;28;20185;-59
2022/09/01 14:44:45;;;;;;;2.57;2.37;;;;;;;;;;4990776;28;20185;-59
2022/09/01 14:47:11;;;;;;;2.77;2.33;;;;;;;;;;4996947;28;20227;-59
2022/09/01 14:49:37;;;;;;;2.23;2.00;;;;;;;;;;4995976;28;20189;-59
2022/09/01 14:52:05;;;;;;;4.33;2.47;;;;;;;;;;4995835;28;20333;-59
2022/09/01 14:54:35;;;;;;;2.83;2.20;;;;;;;;;;4988138;28;20206;-61
2022/09/01 14:57:02;;;;;;;2.43;2.23;;;;;;;;;;4990336;28;20271;-60
2022/09/01 14:59:28;;;;;;;2.47;2.27;;;;;;;;;;4986928;28;21000;-59
2022/09/01 15:01:54;;;;;;;2.63;2.47;;;;;;;;;;4992988;28;20189;-59